createdAt,value
2022-07-26T00:00:13.112Z,2.92
2022-07-26T00:03:00.067Z,2.55
2022-07-26T00:05:28.694Z,2.72
2022-07-26T00:08:10.831Z,2.38
2022-07-26T00:10:39.629Z,2.92
2022-07-26T00:13:06.567Z,2.55
2022-07-26T00:15:33.496Z,2.95
2022-07-26T00:18:00.671Z,2.78
2022-07-26T00:20:27.818Z,2.22
2022-07-26T00:22:55.598Z,2.50
2022-07-26T00:25:23.340Z,2.80
2022-07-26T00:27:50.398Z,2.50
2022-07-26T00:30:17.357Z,2.45
2022-07-26T00:32:44.621Z,3.22
2022-07-26T00:35:11.564Z,2.65
2022-07-26T00:37:38.703Z,2.50
2022-07-26T00:40:06.538Z,2.88
2022-07-26T00:42:35.966Z,2.67
2022-07-26T00:45:03.982Z,2.78
2022-07-26T00:47:31.142Z,2.65
2022-07-26T00:49:58.153Z,2.60
2022-07-26T00:52:25.165Z,2.85
2022-07-26T00:54:54.333Z,3.10
2022-07-26T00:57:22.030Z,2.65
2022-07-26T00:59:49.093Z,2.72
2022-07-26T01:02:17.917Z,2.22
2022-07-26T01:04:45.290Z,2.35
2022-07-26T01:07:14.970Z,2.83
2022-07-26T01:09:42.849Z,2.78
2022-07-26T01:12:09.890Z,2.50
2022-07-26T01:14:36.893Z,2.55
2022-07-26T01:17:04.022Z,2.63
2022-07-26T01:19:30.963Z,2.72
2022-07-26T01:21:57.988Z,2.90
2022-07-26T01:24:25.120Z,2.92
2022-07-26T01:26:52.325Z,3.20
2022-07-26T01:29:19.195Z,2.90
2022-07-26T01:31:46.361Z,3.05
2022-07-26T01:34:13.305Z,2.35
2022-07-26T01:36:40.169Z,3.00
2022-07-26T01:39:07.380Z,3.20
2022-07-26T01:41:38.078Z,2.80
2022-07-26T01:44:06.676Z,3.22
2022-07-26T01:46:35.013Z,2.95
2022-07-26T01:49:02.100Z,3.35
2022-07-26T01:51:29.051Z,2.97
2022-07-26T01:53:56.359Z,2.72
2022-07-26T01:56:23.210Z,2.90
2022-07-26T01:58:50.327Z,3.55
2022-07-26T02:01:38.163Z,2.78
2022-07-26T02:04:04.585Z,2.92
2022-07-26T02:06:32.075Z,3.13
2022-07-26T02:09:00.764Z,2.83
2022-07-26T02:11:28.951Z,3.20
2022-07-26T02:13:56.062Z,3.67
2022-07-26T02:16:22.999Z,3.13
2022-07-26T02:18:49.879Z,3.60
2022-07-26T02:21:16.974Z,3.92
2022-07-26T02:23:44.773Z,3.97
2022-07-26T02:26:11.666Z,3.70
2022-07-26T02:28:38.882Z,3.72
2022-07-26T02:31:05.832Z,3.38
2022-07-26T02:33:32.777Z,3.53
2022-07-26T02:35:59.878Z,4.18
2022-07-26T02:38:26.775Z,3.92
2022-07-26T02:40:53.736Z,4.30
2022-07-26T02:43:21.273Z,3.90
2022-07-26T02:46:01.226Z,4.43
2022-07-26T02:48:30.927Z,4.07
2022-07-26T02:50:57.887Z,4.00
2022-07-26T02:53:24.784Z,4.57
2022-07-26T02:55:51.913Z,3.60
2022-07-26T02:58:21.593Z,3.88
2022-07-26T03:00:48.818Z,4.80
2022-07-26T03:03:16.069Z,4.30
2022-07-26T03:05:43.073Z,5.22
2022-07-26T03:08:09.921Z,5.13
2022-07-26T03:10:37.022Z,4.80
2022-07-26T03:13:03.883Z,4.72
2022-07-26T03:15:30.920Z,4.82
2022-07-26T03:17:58.189Z,4.55
2022-07-26T03:20:25.117Z,4.25
2022-07-26T03:22:52.061Z,5.00
2022-07-26T03:25:19.207Z,4.45
2022-07-26T03:27:46.072Z,5.53
2022-07-26T03:30:13.409Z,4.88
2022-07-26T03:32:40.529Z,4.95
2022-07-26T03:35:08.144Z,4.93
2022-07-26T03:37:45.415Z,4.40
2022-07-26T03:40:17.308Z,4.72
2022-07-26T03:42:47.627Z,5.22
2022-07-26T03:45:15.396Z,4.72
2022-07-26T03:47:42.305Z,5.57
2022-07-26T03:50:09.744Z,5.10
2022-07-26T03:52:36.942Z,5.35
2022-07-26T03:55:24.029Z,5.85
2022-07-26T03:57:51.287Z,5.35
2022-07-26T04:00:18.267Z,5.50
2022-07-26T04:02:45.144Z,4.88
2022-07-26T04:05:12.285Z,5.22
2022-07-26T04:07:43.417Z,5.63
2022-07-26T04:10:20.158Z,5.32
2022-07-26T04:12:47.025Z,5.40
2022-07-26T04:15:16.190Z,5.15
2022-07-26T04:17:43.409Z,5.20
2022-07-26T04:20:11.102Z,5.00
2022-07-26T04:22:38.527Z,4.60
2022-07-26T04:25:06.612Z,4.82
2022-07-26T04:27:33.616Z,4.70
2022-07-26T04:30:00.499Z,4.63
2022-07-26T04:32:27.679Z,4.38
2022-07-26T04:34:54.586Z,4.90
2022-07-26T04:37:21.444Z,5.35
2022-07-26T04:39:54.499Z,5.32
2022-07-26T04:42:21.895Z,5.13
2022-07-26T04:44:49.047Z,5.60
2022-07-26T04:47:15.963Z,5.50
2022-07-26T04:49:42.831Z,4.93
2022-07-26T04:52:09.899Z,5.05
2022-07-26T04:54:36.795Z,5.10
2022-07-26T04:57:03.868Z,5.90
2022-07-26T04:59:32.870Z,5.45
2022-07-26T05:02:00.217Z,5.18
2022-07-26T05:04:27.259Z,4.53
2022-07-26T05:06:54.385Z,5.38
2022-07-26T05:09:21.267Z,5.00
2022-07-26T05:11:48.178Z,5.20
2022-07-26T05:14:15.327Z,5.30
2022-07-26T05:16:44.375Z,4.60
2022-07-26T05:19:13.659Z,4.43
2022-07-26T05:21:41.036Z,5.28
2022-07-26T05:24:08.559Z,4.68
2022-07-26T05:26:35.748Z,4.95
2022-07-26T05:29:03.138Z,4.75
2022-07-26T05:31:30.088Z,4.75
2022-07-26T05:33:56.972Z,5.28
2022-07-26T05:36:24.115Z,5.70
2022-07-26T05:38:50.977Z,5.55
2022-07-26T05:41:17.907Z,5.53
2022-07-26T05:43:45.059Z,5.18
2022-07-26T05:46:12.209Z,5.57
2022-07-26T05:48:39.784Z,5.90
2022-07-26T05:51:06.982Z,5.95
2022-07-26T05:53:34.407Z,5.63
2022-07-26T05:56:01.467Z,5.88
2022-07-26T05:58:28.582Z,5.75
2022-07-26T06:00:55.497Z,5.70
2022-07-26T06:03:22.401Z,6.22
2022-07-26T06:05:54.160Z,5.75
2022-07-26T06:08:21.256Z,6.20
2022-07-26T06:10:48.719Z,5.57
2022-07-26T06:13:16.382Z,6.18
2022-07-26T06:15:44.508Z,6.05
2022-07-26T06:18:11.768Z,6.57
2022-07-26T06:20:40.188Z,6.25
2022-07-26T06:23:07.067Z,6.13
2022-07-26T06:25:34.084Z,6.45
2022-07-26T06:28:05.104Z,6.15
2022-07-26T06:30:32.092Z,6.63
2022-07-26T06:32:59.127Z,6.82
2022-07-26T06:35:30.859Z,6.63
2022-07-26T06:37:58.537Z,6.72
2022-07-26T06:40:25.653Z,7.05
2022-07-26T06:42:52.868Z,6.50
2022-07-26T06:45:19.842Z,6.85
2022-07-26T06:47:46.786Z,6.70
2022-07-26T06:50:14.098Z,6.63
2022-07-26T06:52:41.112Z,6.82
2022-07-26T06:55:14.859Z,6.78
2022-07-26T06:57:44.954Z,7.00
2022-07-26T07:00:17.626Z,6.22
2022-07-26T07:02:44.563Z,6.53
2022-07-26T07:05:12.013Z,6.25
2022-07-26T07:07:39.217Z,6.70
2022-07-26T07:10:09.477Z,6.10
2022-07-26T07:12:36.424Z,6.35
2022-07-26T07:15:03.924Z,6.60
2022-07-26T07:17:30.801Z,6.20
2022-07-26T07:19:57.711Z,6.30
2022-07-26T07:22:24.874Z,6.38
2022-07-26T07:24:51.794Z,6.25
2022-07-26T07:27:18.726Z,6.80
2022-07-26T07:29:48.147Z,6.45
2022-07-26T07:32:15.857Z,5.97
2022-07-26T07:34:45.868Z,6.32
2022-07-26T07:37:15.909Z,6.00
2022-07-26T07:39:42.937Z,5.50
2022-07-26T07:42:09.922Z,5.35
2022-07-26T07:44:37.176Z,5.25
2022-07-26T07:47:04.265Z,6.03
2022-07-26T07:49:31.871Z,5.05
2022-07-26T07:51:59.088Z,5.82
2022-07-26T07:54:27.069Z,4.95
2022-07-26T07:56:56.419Z,5.05
2022-07-26T07:59:24.002Z,4.65
2022-07-26T08:01:50.976Z,4.97
2022-07-26T08:04:17.971Z,4.55
2022-07-26T08:06:50.121Z,4.70
2022-07-26T08:09:18.958Z,4.20
2022-07-26T08:11:50.734Z,4.07
2022-07-26T08:14:19.007Z,4.15
2022-07-26T08:16:45.970Z,4.15
2022-07-26T08:19:13.537Z,4.53
2022-07-26T08:21:43.104Z,3.80
2022-07-26T08:24:10.981Z,4.32
2022-07-26T08:26:38.438Z,4.28
2022-07-26T08:29:05.385Z,3.70
2022-07-26T08:31:32.327Z,4.25
2022-07-26T08:33:59.579Z,3.95
2022-07-26T08:36:32.165Z,3.78
2022-07-26T08:38:59.351Z,3.75
2022-07-26T08:41:26.503Z,4.10
2022-07-26T08:43:54.007Z,3.38
2022-07-26T08:46:27.868Z,3.50
2022-07-26T08:48:56.109Z,3.37
2022-07-26T08:51:23.952Z,3.42
2022-07-26T08:54:02.315Z,3.50
2022-07-26T08:56:33.047Z,3.22
2022-07-26T08:59:03.462Z,3.65
2022-07-26T09:01:30.481Z,3.47
2022-07-26T09:03:57.821Z,3.50
2022-07-26T09:06:28.176Z,3.30
2022-07-26T09:08:55.390Z,2.78
2022-07-26T09:11:32.723Z,3.45
2022-07-26T09:14:04.699Z,3.75
2022-07-26T09:16:34.944Z,2.80
2022-07-26T09:19:22.495Z,3.22
2022-07-26T09:24:43.929Z,2.70
2022-07-26T09:27:12.593Z,2.78
2022-07-26T09:29:49.441Z,2.78
2022-07-26T09:32:21.615Z,2.58
2022-07-26T09:34:58.360Z,2.65
2022-07-26T09:37:36.252Z,2.30
2022-07-26T09:40:05.935Z,2.35
2022-07-26T09:42:33.135Z,2.80
2022-07-26T09:45:00.579Z,2.80
2022-07-26T09:47:37.807Z,2.38
2022-07-26T09:50:11.872Z,2.58
2022-07-26T09:52:38.876Z,2.38
2022-07-26T09:55:07.051Z,2.15
2022-07-26T09:57:35.250Z,2.63
2022-07-26T10:00:05.587Z,2.40
2022-07-26T10:02:33.202Z,2.30
2022-07-26T10:05:00.094Z,2.50
2022-07-26T10:07:27.198Z,2.45
2022-07-26T10:09:59.702Z,2.40
2022-07-26T10:12:30.479Z,2.28
2022-07-26T10:14:57.851Z,2.60
2022-07-26T10:17:31.669Z,2.50
2022-07-26T10:20:04.210Z,2.38
2022-07-26T10:22:43.660Z,2.50
2022-07-26T10:25:33.771Z,2.88
2022-07-26T10:28:00.636Z,2.92
2022-07-26T10:30:34.484Z,3.10
2022-07-26T10:33:04.366Z,2.70
2022-07-26T10:35:34.657Z,2.63
2022-07-26T10:38:05.807Z,2.55
2022-07-26T10:40:33.095Z,2.50
2022-07-26T10:43:38.932Z,2.58
2022-07-26T10:46:15.946Z,2.72
2022-07-26T10:48:59.026Z,2.28
2022-07-26T10:51:27.748Z,2.50
2022-07-26T10:54:02.059Z,2.55
2022-07-26T10:56:33.093Z,2.53
2022-07-26T10:59:01.140Z,2.50
2022-07-26T11:01:34.869Z,1.98
2022-07-26T11:04:02.220Z,2.20
2022-07-26T11:06:30.367Z,2.08
2022-07-26T11:08:57.330Z,2.60
2022-07-26T11:11:32.384Z,2.50
2022-07-26T11:14:10.396Z,1.92
2022-07-26T11:16:41.944Z,1.83
2022-07-26T11:19:20.086Z,2.28
2022-07-26T11:21:58.662Z,2.40
2022-07-26T11:24:26.892Z,2.03
2022-07-26T11:26:54.213Z,2.40
2022-07-26T11:29:37.283Z,2.30
2022-07-26T11:32:22.043Z,1.85
2022-07-26T11:35:00.199Z,2.03
2022-07-26T11:37:27.710Z,2.13
2022-07-26T11:39:54.600Z,1.92
2022-07-26T11:42:22.222Z,2.40
2022-07-26T11:44:49.832Z,2.05
2022-07-26T11:47:20.109Z,2.03
2022-07-26T11:49:51.873Z,2.10
2022-07-26T11:52:34.745Z,1.88
2022-07-26T11:55:01.698Z,2.17
2022-07-26T11:57:29.972Z,2.17
2022-07-26T11:59:57.252Z,2.28
2022-07-26T12:02:24.125Z,2.03
2022-07-26T12:04:56.932Z,1.88
2022-07-26T12:07:24.310Z,2.03
2022-07-26T12:09:52.310Z,1.60
2022-07-26T12:12:22.691Z,1.90
2022-07-26T12:14:57.601Z,2.10
2022-07-26T12:17:24.516Z,1.80
2022-07-26T12:19:51.634Z,2.10
2022-07-26T12:22:22.371Z,1.70
2022-07-26T12:24:52.251Z,2.00
2022-07-26T12:27:22.592Z,2.00
2022-07-26T12:29:53.977Z,1.88
2022-07-26T12:32:31.284Z,2.17
2022-07-26T12:35:03.043Z,2.25
2022-07-26T12:37:39.727Z,1.83
2022-07-26T12:40:12.666Z,2.05
2022-07-26T12:42:41.326Z,1.70
2022-07-26T12:45:10.406Z,1.95
2022-07-26T12:47:38.684Z,2.10
2022-07-26T12:50:06.452Z,1.80
2022-07-26T12:52:36.481Z,1.90
2022-07-26T12:55:04.712Z,2.00
2022-07-26T12:57:31.906Z,1.73
2022-07-26T12:59:59.140Z,1.38
2022-07-26T13:02:26.070Z,1.70
2022-07-26T13:04:56.917Z,2.00
2022-07-26T13:07:27.008Z,1.88
2022-07-26T13:10:14.269Z,2.13
2022-07-26T13:12:41.259Z,1.83
2022-07-26T13:15:09.003Z,1.67
2022-07-26T13:17:35.911Z,2.00
2022-07-26T13:20:02.837Z,2.00
2022-07-26T13:22:30.024Z,1.67
2022-07-26T13:24:56.931Z,2.00
2022-07-26T13:27:27.539Z,1.90
2022-07-26T13:30:03.688Z,1.83
2022-07-26T13:32:30.625Z,1.70
2022-07-26T13:34:57.501Z,1.88
2022-07-26T13:37:25.048Z,1.88
2022-07-26T13:39:51.884Z,2.17
2022-07-26T13:42:19.474Z,2.10
2022-07-26T13:44:46.572Z,1.98
2022-07-26T13:47:13.431Z,1.90
2022-07-26T13:49:40.328Z,2.17
2022-07-26T13:52:12.079Z,2.25
2022-07-26T13:54:42.197Z,1.98
2022-07-26T13:57:09.374Z,1.83
2022-07-26T13:59:36.254Z,1.65
2022-07-26T14:02:04.881Z,1.80
2022-07-26T14:04:32.353Z,1.98
2022-07-26T14:06:59.220Z,2.00
2022-07-26T14:09:26.192Z,2.13
2022-07-26T14:11:53.315Z,1.80
2022-07-26T14:14:20.364Z,2.30
2022-07-26T14:16:49.300Z,1.98
2022-07-26T14:19:17.403Z,1.80
2022-07-26T14:21:58.812Z,2.40
2022-07-26T14:24:27.563Z,1.95
2022-07-26T14:26:58.925Z,2.60
2022-07-26T14:29:27.003Z,2.13
2022-07-26T14:31:54.169Z,2.25
2022-07-26T14:34:21.086Z,2.22
2022-07-26T14:36:48.039Z,2.38
2022-07-26T14:39:15.134Z,2.50
2022-07-26T14:41:42.098Z,2.15
2022-07-26T14:44:09.328Z,2.47
2022-07-26T14:46:36.626Z,2.33
2022-07-26T14:49:03.691Z,2.10
2022-07-26T14:51:30.618Z,2.17
2022-07-26T14:53:57.748Z,2.17
2022-07-26T14:56:24.571Z,2.53
2022-07-26T14:58:51.581Z,2.22
2022-07-26T15:01:18.935Z,2.40
2022-07-26T15:03:45.918Z,2.50
2022-07-26T15:06:12.856Z,2.17
2022-07-26T15:08:41.207Z,2.28
2022-07-26T15:11:08.075Z,2.35
2022-07-26T15:13:35.195Z,1.92
2022-07-26T15:16:02.396Z,2.40
2022-07-26T15:18:30.762Z,2.33
2022-07-26T15:20:57.994Z,2.40
2022-07-26T15:23:25.241Z,2.58
2022-07-26T15:25:52.486Z,2.15
2022-07-26T15:28:19.322Z,2.20
2022-07-26T15:30:46.465Z,2.42
2022-07-26T15:33:14.621Z,2.38
2022-07-26T15:35:41.698Z,2.58
2022-07-26T15:38:08.750Z,2.20
2022-07-26T15:40:35.707Z,2.45
2022-07-26T15:43:03.014Z,2.60
2022-07-26T15:45:30.293Z,2.67
2022-07-26T15:48:11.430Z,2.38
2022-07-26T15:50:43.341Z,2.20
2022-07-26T15:53:10.299Z,2.30
2022-07-26T15:55:37.174Z,2.33
2022-07-26T15:58:04.289Z,2.30
2022-07-26T16:00:31.158Z,2.30
2022-07-26T16:02:58.063Z,2.17
2022-07-26T16:05:25.217Z,2.60
2022-07-26T16:07:52.102Z,1.90
2022-07-26T16:10:19.044Z,2.70
2022-07-26T16:12:46.252Z,2.72
2022-07-26T16:15:13.982Z,2.88
2022-07-26T16:17:40.846Z,2.35
2022-07-26T16:20:08.410Z,2.53
2022-07-26T16:22:35.453Z,2.45
2022-07-26T16:25:02.322Z,2.53
2022-07-26T16:27:29.442Z,2.63
2022-07-26T16:29:56.333Z,2.65
2022-07-26T16:32:23.249Z,2.47
2022-07-26T16:34:50.354Z,2.60
2022-07-26T16:37:17.361Z,2.58
2022-07-26T16:39:44.301Z,3.10
2022-07-26T16:42:11.387Z,2.83
2022-07-26T16:44:38.541Z,2.28
2022-07-26T16:47:05.620Z,3.00
2022-07-26T16:49:32.905Z,2.67
2022-07-26T16:51:59.952Z,2.65
2022-07-26T16:54:26.925Z,2.50
2022-07-26T16:56:54.133Z,2.25
2022-07-26T16:59:21.004Z,2.90
2022-07-26T17:01:47.959Z,2.80
2022-07-26T17:04:16.240Z,2.53
2022-07-26T17:06:56.463Z,3.05
2022-07-26T17:09:29.185Z,2.70
2022-07-26T17:11:56.088Z,2.75
2022-07-26T17:14:23.015Z,2.88
2022-07-26T17:16:50.274Z,2.67
2022-07-26T17:19:17.247Z,2.33
2022-07-26T17:21:44.261Z,2.72
2022-07-26T17:24:11.407Z,2.58
2022-07-26T17:26:38.348Z,2.67
2022-07-26T17:29:07.171Z,2.50
2022-07-26T17:31:34.420Z,2.42
2022-07-26T17:34:01.360Z,2.17
2022-07-26T17:36:29.610Z,2.88
2022-07-26T17:38:57.192Z,2.42
2022-07-26T17:41:24.509Z,2.47
2022-07-26T17:43:59.776Z,2.05
2022-07-26T17:46:26.888Z,2.30
2022-07-26T17:48:53.889Z,2.88
2022-07-26T17:51:21.117Z,2.35
2022-07-26T17:53:52.833Z,2.47
2022-07-26T17:56:20.322Z,2.15
2022-07-26T17:58:47.397Z,2.58
2022-07-26T18:01:14.360Z,2.38
2022-07-26T18:03:41.510Z,2.22
2022-07-26T18:06:08.656Z,2.63
2022-07-26T18:08:35.550Z,2.20
2022-07-26T18:11:05.521Z,2.60
2022-07-26T18:13:32.924Z,2.67
2022-07-26T18:16:04.145Z,2.13
2022-07-26T18:18:32.726Z,2.30
2022-07-26T18:21:00.029Z,2.05
2022-07-26T18:23:26.913Z,2.40
2022-07-26T18:25:53.919Z,2.30
2022-07-26T18:28:21.241Z,2.70
2022-07-26T18:30:48.131Z,2.13
2022-07-26T18:33:15.359Z,2.60
2022-07-26T18:35:42.755Z,2.83
2022-07-26T18:38:09.733Z,2.75
2022-07-26T18:40:37.493Z,2.58
2022-07-26T18:43:04.591Z,2.47
2022-07-26T18:45:31.556Z,2.20
2022-07-26T18:47:58.442Z,2.67
2022-07-26T18:50:27.163Z,2.35
2022-07-26T18:52:57.982Z,2.67
2022-07-26T18:55:24.877Z,2.80
2022-07-26T18:57:51.997Z,2.05
2022-07-26T19:00:20.261Z,2.40
2022-07-26T19:02:47.310Z,2.22
2022-07-26T19:05:14.829Z,3.08
2022-07-26T19:07:41.960Z,2.22
2022-07-26T19:10:09.627Z,2.58
2022-07-26T19:12:37.411Z,2.42
2022-07-26T19:15:05.410Z,2.53
2022-07-26T19:17:32.930Z,2.72
2022-07-26T19:20:00.316Z,2.67
2022-07-26T19:22:29.368Z,2.50
2022-07-26T19:24:56.457Z,2.65
2022-07-26T19:27:23.596Z,2.67
2022-07-26T19:29:50.488Z,2.20
2022-07-26T19:32:17.368Z,2.38
2022-07-26T19:34:44.503Z,2.28
2022-07-26T19:37:11.364Z,2.35
2022-07-26T19:39:38.304Z,2.03
2022-07-26T19:42:05.527Z,1.90
2022-07-26T19:44:32.543Z,2.92
2022-07-26T19:46:59.391Z,2.47
2022-07-26T19:49:26.633Z,2.05
2022-07-26T19:51:53.572Z,2.38
2022-07-26T19:54:21.388Z,2.40
2022-07-26T19:56:48.482Z,2.63
2022-07-26T19:59:20.948Z,3.17
2022-07-26T20:01:52.812Z,3.80
2022-07-26T20:04:19.974Z,4.72
2022-07-26T20:06:47.100Z,5.53
2022-07-26T20:09:14.448Z,5.40
2022-07-26T20:11:42.820Z,6.80
2022-07-26T20:14:09.712Z,6.82
2022-07-26T20:16:36.865Z,5.63
2022-07-26T20:19:03.758Z,5.65
2022-07-26T20:21:30.692Z,6.53
2022-07-26T20:23:57.776Z,6.40
2022-07-26T20:26:24.653Z,6.63
2022-07-26T20:28:51.505Z,6.70
2022-07-26T20:31:18.737Z,6.35
2022-07-26T20:33:45.676Z,6.85
2022-07-26T20:36:12.567Z,6.35
2022-07-26T20:38:39.751Z,6.15
2022-07-26T20:41:06.763Z,7.05
2022-07-26T20:43:33.777Z,6.18
2022-07-26T20:46:02.140Z,6.05
2022-07-26T20:48:29.107Z,5.63
2022-07-26T20:50:55.994Z,6.07
2022-07-26T20:53:23.436Z,5.80
2022-07-26T20:55:50.385Z,6.43
2022-07-26T20:58:18.025Z,6.20
2022-07-26T21:00:45.147Z,5.78
2022-07-26T21:03:13.793Z,6.68
2022-07-26T21:05:40.651Z,6.32
2022-07-26T21:08:07.838Z,6.63
2022-07-26T21:10:34.838Z,6.30
2022-07-26T21:13:01.776Z,6.13
2022-07-26T21:15:29.477Z,6.03
2022-07-26T21:17:56.696Z,6.00
2022-07-26T21:20:23.588Z,5.95
2022-07-26T21:22:50.745Z,5.82
2022-07-26T21:25:17.601Z,5.43
2022-07-26T21:27:44.476Z,5.68
2022-07-26T21:30:11.997Z,5.40
2022-07-26T21:32:38.812Z,5.93
2022-07-26T21:35:06.175Z,5.40
2022-07-26T21:37:33.263Z,5.32
2022-07-26T21:40:00.859Z,5.88
2022-07-26T21:42:28.039Z,5.65
2022-07-26T21:44:55.219Z,5.65
2022-07-26T21:47:22.084Z,5.05
2022-07-26T21:49:48.930Z,5.35
2022-07-26T21:52:15.978Z,5.43
2022-07-26T21:54:42.782Z,5.60
2022-07-26T21:57:09.682Z,5.47
2022-07-26T21:59:36.768Z,5.60
2022-07-26T22:02:03.825Z,5.43
2022-07-26T22:04:30.984Z,5.93
2022-07-26T22:06:58.031Z,5.53
2022-07-26T22:09:24.866Z,5.78
2022-07-26T22:11:53.078Z,5.18
2022-07-26T22:14:20.479Z,6.05
2022-07-26T22:16:50.254Z,4.63
2022-07-26T22:19:17.151Z,5.88
2022-07-26T22:21:44.329Z,5.10
2022-07-26T22:24:11.183Z,5.65
2022-07-26T22:26:38.077Z,5.07
2022-07-26T22:29:05.198Z,4.63
2022-07-26T22:31:32.196Z,5.85
2022-07-26T22:33:59.068Z,5.15
2022-07-26T22:36:26.160Z,4.47
2022-07-26T22:38:53.069Z,4.75
2022-07-26T22:41:20.102Z,5.32
2022-07-26T22:43:47.170Z,5.18
2022-07-26T22:46:14.260Z,4.82
2022-07-26T22:48:45.974Z,5.60
2022-07-26T22:51:15.025Z,4.90
2022-07-26T22:53:41.862Z,4.40
2022-07-26T22:56:08.671Z,4.85
2022-07-26T22:58:35.768Z,5.55
2022-07-26T23:01:02.680Z,4.95
2022-07-26T23:03:29.598Z,5.28
2022-07-26T23:05:57.949Z,4.40
2022-07-26T23:11:12.047Z,4.68
2022-07-26T23:13:38.880Z,4.47
2022-07-26T23:16:05.825Z,4.57
2022-07-26T23:18:33.462Z,4.35
2022-07-26T23:21:00.315Z,4.47
2022-07-26T23:23:29.681Z,4.30
2022-07-26T23:25:58.166Z,4.30
2022-07-26T23:28:35.482Z,4.43
2022-07-26T23:31:11.708Z,4.10
2022-07-26T23:33:53.453Z,3.70
2022-07-26T23:36:25.873Z,4.03
2022-07-26T23:38:53.815Z,3.80
2022-07-26T23:41:20.883Z,4.00
2022-07-26T23:43:47.944Z,4.05
2022-07-26T23:46:14.903Z,3.85
2022-07-26T23:48:41.835Z,3.85
2022-07-26T23:51:08.990Z,4.70
2022-07-26T23:53:35.800Z,4.00
2022-07-26T23:56:02.657Z,3.67
2022-07-26T23:58:29.715Z,4.30
